sensor_id;sensor_type;location;lat;lon;timestamp;pressure;altitude;pressure_sealevel;temperature;humidity
71149;BME280;59072;42.144;25.200;2023-11-21T00:02:14;99906.38;;;5.27;76.28
71149;BME280;59072;42.144;25.200;2023-11-21T00:04:40;99877.28;;;5.06;76.43
71149;BME280;59072;42.144;25.200;2023-11-21T00:07:05;99923.06;;;5.71;75.41
71149;BME280;59072;42.144;25.200;2023-11-21T00:09:34;99930.31;;;5.90;74.13
71149;BME280;59072;42.144;25.200;2023-11-21T00:12:00;99917.59;;;6.00;73.31
71149;BME280;59072;42.144;25.200;2023-11-21T00:14:25;99940.00;;;5.98;72.41
71149;BME280;59072;42.144;25.200;2023-11-21T00:16:51;99911.09;;;5.75;73.15
71149;BME280;59072;42.144;25.200;2023-11-21T00:19:16;99925.63;;;5.86;73.17
71149;BME280;59072;42.144;25.200;2023-11-21T00:21:42;99933.38;;;5.87;71.67
71149;BME280;59072;42.144;25.200;2023-11-21T00:24:10;99923.56;;;5.81;71.41
71149;BME280;59072;42.144;25.200;2023-11-21T00:26:35;99947.88;;;5.70;71.56
71149;BME280;59072;42.144;25.200;2023-11-21T00:29:03;99919.84;;;5.75;71.52
71149;BME280;59072;42.144;25.200;2023-11-21T00:31:28;99922.16;;;5.63;71.93
71149;BME280;59072;42.144;25.200;2023-11-21T00:33:56;99911.78;;;5.40;72.52
71149;BME280;59072;42.144;25.200;2023-11-21T00:36:21;99952.28;;;5.41;73.66
71149;BME280;59072;42.144;25.200;2023-11-21T00:38:47;99936.66;;;4.73;76.99
71149;BME280;59072;42.144;25.200;2023-11-21T00:41:13;99954.16;;;4.74;77.38
71149;BME280;59072;42.144;25.200;2023-11-21T00:43:39;99924.00;;;4.09;79.46
71149;BME280;59072;42.144;25.200;2023-11-21T00:46:05;99931.19;;;4.00;80.29
71149;BME280;59072;42.144;25.200;2023-11-21T00:48:33;99914.91;;;3.74;81.06
71149;BME280;59072;42.144;25.200;2023-11-21T00:50:58;99939.84;;;4.39;79.02
71149;BME280;59072;42.144;25.200;2023-11-21T00:53:24;99922.66;;;4.28;79.27
71149;BME280;59072;42.144;25.200;2023-11-21T00:55:49;99917.38;;;4.58;78.56
71149;BME280;59072;42.144;25.200;2023-11-21T00:58:17;99906.88;;;4.35;79.84
71149;BME280;59072;42.144;25.200;2023-11-21T01:00:43;99928.56;;;4.45;79.20
71149;BME280;59072;42.144;25.200;2023-11-21T01:03:09;99914.38;;;4.46;79.06
71149;BME280;59072;42.144;25.200;2023-11-21T01:05:34;99919.44;;;4.33;78.00
71149;BME280;59072;42.144;25.200;2023-11-21T01:08:02;99913.19;;;4.19;78.70
71149;BME280;59072;42.144;25.200;2023-11-21T01:10:27;99922.06;;;4.77;75.53
71149;BME280;59072;42.144;25.200;2023-11-21T01:12:52;99910.78;;;4.83;75.86
71149;BME280;59072;42.144;25.200;2023-11-21T01:15:18;99933.47;;;5.14;73.67
71149;BME280;59072;42.144;25.200;2023-11-21T01:17:43;99909.81;;;5.06;73.09
71149;BME280;59072;42.144;25.200;2023-11-21T01:20:09;99929.84;;;5.15;72.61
71149;BME280;59072;42.144;25.200;2023-11-21T01:22:38;99937.38;;;4.97;73.68
71149;BME280;59072;42.144;25.200;2023-11-21T01:25:04;99901.19;;;4.31;76.36
71149;BME280;59072;42.144;25.200;2023-11-21T01:27:32;99923.81;;;4.85;75.59
71149;BME280;59072;42.144;25.200;2023-11-21T01:29:58;99927.22;;;5.00;74.40
71149;BME280;59072;42.144;25.200;2023-11-21T01:32:23;99911.06;;;4.59;76.23
71149;BME280;59072;42.144;25.200;2023-11-21T01:34:50;99927.44;;;4.99;75.08
71149;BME280;59072;42.144;25.200;2023-11-21T01:37:15;99929.75;;;5.09;74.36
71149;BME280;59072;42.144;25.200;2023-11-21T01:39:43;99924.84;;;5.06;74.55
71149;BME280;59072;42.144;25.200;2023-11-21T01:42:09;99920.03;;;4.94;75.65
71149;BME280;59072;42.144;25.200;2023-11-21T01:44:34;99869.53;;;4.68;75.85
71149;BME280;59072;42.144;25.200;2023-11-21T01:47:01;99906.16;;;5.07;74.91
71149;BME280;59072;42.144;25.200;2023-11-21T01:51:48;99865.38;;;4.95;73.95
71149;BME280;59072;42.144;25.200;2023-11-21T01:54:16;99906.75;;;5.24;73.61
71149;BME280;59072;42.144;25.200;2023-11-21T01:56:45;99884.34;;;4.83;74.94
71149;BME280;59072;42.144;25.200;2023-11-21T01:59:12;99886.75;;;4.78;75.64
71149;BME280;59072;42.144;25.200;2023-11-21T02:01:39;99910.78;;;5.20;74.26
71149;BME280;59072;42.144;25.200;2023-11-21T02:04:04;99889.13;;;5.10;74.49
71149;BME280;59072;42.144;25.200;2023-11-21T02:06:30;99884.41;;;5.27;73.47
71149;BME280;59072;42.144;25.200;2023-11-21T02:08:56;99902.72;;;5.28;74.15
71149;BME280;59072;42.144;25.200;2023-11-21T02:11:21;99893.97;;;5.28;73.55
71149;BME280;59072;42.144;25.200;2023-11-21T02:13:47;99873.19;;;5.03;74.09
71149;BME280;59072;42.144;25.200;2023-11-21T02:16:15;99909.00;;;5.06;74.55
71149;BME280;59072;42.144;25.200;2023-11-21T02:18:40;99909.78;;;3.95;79.46
71149;BME280;59072;42.144;25.200;2023-11-21T02:21:07;99896.03;;;3.85;79.86
71149;BME280;59072;42.144;25.200;2023-11-21T02:23:33;99880.13;;;4.08;79.11
71149;BME280;59072;42.144;25.200;2023-11-21T02:25:58;99882.78;;;4.38;77.82
71149;BME280;59072;42.144;25.200;2023-11-21T02:28:24;99883.69;;;4.60;76.36
71149;BME280;59072;42.144;25.200;2023-11-21T02:30:54;99852.94;;;4.74;76.05
71149;BME280;59072;42.144;25.200;2023-11-21T02:33:21;99875.47;;;4.55;77.63
71149;BME280;59072;42.144;25.200;2023-11-21T02:35:47;99859.28;;;3.46;80.54
71149;BME280;59072;42.144;25.200;2023-11-21T02:38:12;99865.94;;;3.56;79.52
71149;BME280;59072;42.144;25.200;2023-11-21T02:40:38;99876.16;;;3.13;81.20
71149;BME280;59072;42.144;25.200;2023-11-21T02:43:04;99869.66;;;3.24;78.88
71149;BME280;59072;42.144;25.200;2023-11-21T02:45:31;99901.81;;;2.57;82.07
71149;BME280;59072;42.144;25.200;2023-11-21T02:47:57;99890.16;;;1.87;82.69
71149;BME280;59072;42.144;25.200;2023-11-21T02:50:23;99872.44;;;1.56;83.05
71149;BME280;59072;42.144;25.200;2023-11-21T02:52:49;99911.66;;;2.63;80.37
71149;BME280;59072;42.144;25.200;2023-11-21T02:55:15;99901.03;;;2.79;79.60
71149;BME280;59072;42.144;25.200;2023-11-21T02:57:40;99862.88;;;2.75;81.23
71149;BME280;59072;42.144;25.200;2023-11-21T03:00:06;99900.19;;;2.87;82.12
71149;BME280;59072;42.144;25.200;2023-11-21T03:02:41;99871.47;;;3.00;82.22
71149;BME280;59072;42.144;25.200;2023-11-21T03:05:07;99915.22;;;3.33;82.85
71149;BME280;59072;42.144;25.200;2023-11-21T03:07:34;99886.81;;;3.20;82.88
71149;BME280;59072;42.144;25.200;2023-11-21T03:10:00;99900.53;;;3.38;81.63
71149;BME280;59072;42.144;25.200;2023-11-21T03:12:26;99896.44;;;3.13;82.02
71149;BME280;59072;42.144;25.200;2023-11-21T03:14:51;99904.56;;;3.49;79.55
71149;BME280;59072;42.144;25.200;2023-11-21T03:17:16;99912.75;;;2.77;83.45
71149;BME280;59072;42.144;25.200;2023-11-21T03:19:42;99893.81;;;2.42;86.65
71149;BME280;59072;42.144;25.200;2023-11-21T03:22:07;99923.44;;;2.75;85.65
71149;BME280;59072;42.144;25.200;2023-11-21T03:24:34;99910.88;;;2.86;84.95
71149;BME280;59072;42.144;25.200;2023-11-21T03:26:59;99914.28;;;2.63;86.26
71149;BME280;59072;42.144;25.200;2023-11-21T03:29:25;99877.09;;;2.66;86.57
71149;BME280;59072;42.144;25.200;2023-11-21T03:31:51;99873.75;;;3.27;82.45
71149;BME280;59072;42.144;25.200;2023-11-21T03:34:23;99900.75;;;3.52;80.41
71149;BME280;59072;42.144;25.200;2023-11-21T03:36:49;99889.09;;;3.46;81.13
71149;BME280;59072;42.144;25.200;2023-11-21T03:39:14;99895.44;;;2.83;84.56
71149;BME280;59072;42.144;25.200;2023-11-21T03:41:39;99894.88;;;2.64;86.01
71149;BME280;59072;42.144;25.200;2023-11-21T03:44:05;99886.16;;;2.95;83.42
71149;BME280;59072;42.144;25.200;2023-11-21T03:46:30;99879.88;;;2.96;83.53
71149;BME280;59072;42.144;25.200;2023-11-21T03:48:56;99911.19;;;3.45;82.08
71149;BME280;59072;42.144;25.200;2023-11-21T03:51:21;99872.53;;;3.14;83.03
71149;BME280;59072;42.144;25.200;2023-11-21T03:53:47;99893.16;;;3.34;83.36
71149;BME280;59072;42.144;25.200;2023-11-21T03:56:13;99891.75;;;3.23;84.70
71149;BME280;59072;42.144;25.200;2023-11-21T03:58:39;99896.44;;;3.13;85.50
71149;BME280;59072;42.144;25.200;2023-11-21T04:01:04;99869.41;;;2.88;85.54
71149;BME280;59072;42.144;25.200;2023-11-21T04:03:30;99882.78;;;2.38;89.27
71149;BME280;59072;42.144;25.200;2023-11-21T04:05:55;99896.38;;;2.90;86.33
71149;BME280;59072;42.144;25.200;2023-11-21T04:08:21;99894.84;;;2.25;88.95
71149;BME280;59072;42.144;25.200;2023-11-21T04:10:46;99916.09;;;2.15;90.88
71149;BME280;59072;42.144;25.200;2023-11-21T04:13:11;99917.78;;;1.67;89.17
71149;BME280;59072;42.144;25.200;2023-11-21T04:15:37;99906.44;;;1.91;88.18
71149;BME280;59072;42.144;25.200;2023-11-21T04:18:03;99911.34;;;1.94;88.62
71149;BME280;59072;42.144;25.200;2023-11-21T04:20:28;99914.34;;;2.47;86.69
71149;BME280;59072;42.144;25.200;2023-11-21T04:22:53;99912.03;;;2.52;87.83
71149;BME280;59072;42.144;25.200;2023-11-21T04:25:19;99878.88;;;2.26;89.47
71149;BME280;59072;42.144;25.200;2023-11-21T04:27:45;99903.53;;;2.41;90.02
71149;BME280;59072;42.144;25.200;2023-11-21T04:30:11;99905.09;;;2.59;88.84
71149;BME280;59072;42.144;25.200;2023-11-21T04:32:37;99901.63;;;2.11;90.63
71149;BME280;59072;42.144;25.200;2023-11-21T04:35:04;99924.31;;;2.68;89.09
71149;BME280;59072;42.144;25.200;2023-11-21T04:37:30;99927.13;;;2.66;87.08
71149;BME280;59072;42.144;25.200;2023-11-21T04:39:55;99915.28;;;2.62;86.51
71149;BME280;59072;42.144;25.200;2023-11-21T04:42:21;99903.09;;;2.61;85.11
71149;BME280;59072;42.144;25.200;2023-11-21T04:44:47;99945.66;;;2.25;89.00
71149;BME280;59072;42.144;25.200;2023-11-21T04:47:12;99914.50;;;1.56;90.88
71149;BME280;59072;42.144;25.200;2023-11-21T04:49:41;99932.06;;;1.31;91.21
71149;BME280;59072;42.144;25.200;2023-11-21T04:52:07;99944.81;;;1.10;91.86
71149;BME280;59072;42.144;25.200;2023-11-21T04:54:35;99893.75;;;1.20;90.61
71149;BME280;59072;42.144;25.200;2023-11-21T04:57:00;99926.31;;;1.93;87.37
71149;BME280;59072;42.144;25.200;2023-11-21T04:59:26;99905.28;;;1.85;87.99
71149;BME280;59072;42.144;25.200;2023-11-21T05:01:53;99903.31;;;1.46;89.45
71149;BME280;59072;42.144;25.200;2023-11-21T05:04:19;99919.56;;;1.33;90.39
71149;BME280;59072;42.144;25.200;2023-11-21T05:06:44;99934.53;;;1.98;87.87
71149;BME280;59072;42.144;25.200;2023-11-21T05:09:10;99937.47;;;2.04;87.27
71149;BME280;59072;42.144;25.200;2023-11-21T05:11:37;99943.91;;;1.76;89.13
71149;BME280;59072;42.144;25.200;2023-11-21T05:14:03;99924.00;;;1.98;87.38
71149;BME280;59072;42.144;25.200;2023-11-21T05:16:30;99924.44;;;2.18;87.09
71149;BME280;59072;42.144;25.200;2023-11-21T05:18:56;99931.44;;;2.51;85.56
71149;BME280;59072;42.144;25.200;2023-11-21T05:21:26;99954.88;;;2.77;84.96
71149;BME280;59072;42.144;25.200;2023-11-21T05:23:52;99960.81;;;2.07;89.23
71149;BME280;59072;42.144;25.200;2023-11-21T05:26:17;99938.94;;;1.98;89.40
71149;BME280;59072;42.144;25.200;2023-11-21T05:28:43;99954.06;;;2.76;87.30
71149;BME280;59072;42.144;25.200;2023-11-21T05:31:08;99946.59;;;2.40;87.65
71149;BME280;59072;42.144;25.200;2023-11-21T05:33:33;99935.41;;;2.47;88.21
71149;BME280;59072;42.144;25.200;2023-11-21T05:35:59;99953.00;;;2.54;87.67
71149;BME280;59072;42.144;25.200;2023-11-21T05:38:25;99949.66;;;2.05;89.47
71149;BME280;59072;42.144;25.200;2023-11-21T05:40:51;99931.25;;;1.88;89.90
71149;BME280;59072;42.144;25.200;2023-11-21T05:43:16;99941.72;;;2.29;89.41
71149;BME280;59072;42.144;25.200;2023-11-21T05:45:41;99943.38;;;2.06;90.64
71149;BME280;59072;42.144;25.200;2023-11-21T05:48:07;99948.97;;;2.11;91.27
71149;BME280;59072;42.144;25.200;2023-11-21T05:50:33;99907.22;;;2.08;89.70
71149;BME280;59072;42.144;25.200;2023-11-21T05:52:58;99958.78;;;2.41;90.70
71149;BME280;59072;42.144;25.200;2023-11-21T05:55:25;99965.03;;;2.32;90.77
71149;BME280;59072;42.144;25.200;2023-11-21T05:57:51;99933.03;;;2.04;91.04
71149;BME280;59072;42.144;25.200;2023-11-21T06:00:17;99949.59;;;2.37;89.95
71149;BME280;59072;42.144;25.200;2023-11-21T06:02:45;99960.94;;;2.38;90.71
71149;BME280;59072;42.144;25.200;2023-11-21T06:05:11;99966.69;;;2.33;91.98
71149;BME280;59072;42.144;25.200;2023-11-21T06:07:37;99948.47;;;2.24;91.53
71149;BME280;59072;42.144;25.200;2023-11-21T06:10:04;99959.75;;;2.40;90.99
71149;BME280;59072;42.144;25.200;2023-11-21T06:12:32;99948.94;;;2.83;88.35
71149;BME280;59072;42.144;25.200;2023-11-21T06:15:01;99930.84;;;2.80;88.55
71149;BME280;59072;42.144;25.200;2023-11-21T06:17:30;99975.28;;;3.14;88.09
71149;BME280;59072;42.144;25.200;2023-11-21T06:19:55;99976.09;;;3.46;86.24
71149;BME280;59072;42.144;25.200;2023-11-21T06:22:21;99960.88;;;3.56;82.60
71149;BME280;59072;42.144;25.200;2023-11-21T06:24:46;99980.66;;;3.75;83.08
71149;BME280;59072;42.144;25.200;2023-11-21T06:27:12;99976.81;;;3.63;83.34
71149;BME280;59072;42.144;25.200;2023-11-21T06:29:37;99976.47;;;3.66;82.38
71149;BME280;59072;42.144;25.200;2023-11-21T06:32:03;99955.22;;;3.59;84.60
71149;BME280;59072;42.144;25.200;2023-11-21T06:34:30;99942.88;;;3.37;86.67
71149;BME280;59072;42.144;25.200;2023-11-21T06:36:56;99944.84;;;3.81;84.60
71149;BME280;59072;42.144;25.200;2023-11-21T06:39:21;99935.09;;;4.05;83.13
71149;BME280;59072;42.144;25.200;2023-11-21T06:41:49;99952.25;;;4.68;81.19
71149;BME280;59072;42.144;25.200;2023-11-21T06:44:15;99969.00;;;4.75;80.67
71149;BME280;59072;42.144;25.200;2023-11-21T06:46:40;99955.38;;;5.08;78.33
71149;BME280;59072;42.144;25.200;2023-11-21T06:49:08;99964.75;;;5.47;77.47
71149;BME280;59072;42.144;25.200;2023-11-21T06:51:33;99962.88;;;5.62;76.40
71149;BME280;59072;42.144;25.200;2023-11-21T06:53:58;99970.25;;;5.89;76.19
71149;BME280;59072;42.144;25.200;2023-11-21T06:56:24;99966.91;;;6.01;75.68
71149;BME280;59072;42.144;25.200;2023-11-21T06:58:49;99975.41;;;6.53;74.37
71149;BME280;59072;42.144;25.200;2023-11-21T07:01:19;99993.56;;;6.84;73.22
71149;BME280;59072;42.144;25.200;2023-11-21T07:03:44;99964.94;;;6.73;73.49
71149;BME280;59072;42.144;25.200;2023-11-21T07:06:10;99962.59;;;6.57;74.65
71149;BME280;59072;42.144;25.200;2023-11-21T07:08:36;99987.19;;;7.27;73.32
71149;BME280;59072;42.144;25.200;2023-11-21T07:11:03;99954.34;;;7.35;72.58
71149;BME280;59072;42.144;25.200;2023-11-21T07:13:29;99956.38;;;7.33;72.59
71149;BME280;59072;42.144;25.200;2023-11-21T07:15:54;99984.88;;;7.92;71.96
71149;BME280;59072;42.144;25.200;2023-11-21T07:18:20;99974.28;;;7.99;72.12
71149;BME280;59072;42.144;25.200;2023-11-21T07:20:45;99983.25;;;8.18;70.42
71149;BME280;59072;42.144;25.200;2023-11-21T07:23:11;99999.16;;;8.04;71.77
71149;BME280;59072;42.144;25.200;2023-11-21T07:25:36;99968.53;;;8.02;73.55
71149;BME280;59072;42.144;25.200;2023-11-21T07:28:02;99988.13;;;8.34;71.39
71149;BME280;59072;42.144;25.200;2023-11-21T07:30:27;99960.34;;;8.43;71.46
71149;BME280;59072;42.144;25.200;2023-11-21T07:32:53;99977.78;;;8.98;69.18
71149;BME280;59072;42.144;25.200;2023-11-21T07:35:18;99969.81;;;9.43;67.55
71149;BME280;59072;42.144;25.200;2023-11-21T07:37:44;99992.19;;;9.67;66.72
71149;BME280;59072;42.144;25.200;2023-11-21T07:40:10;99944.31;;;9.60;66.36
71149;BME280;59072;42.144;25.200;2023-11-21T07:42:37;99954.53;;;9.63;67.20
71149;BME280;59072;42.144;25.200;2023-11-21T07:45:04;99934.34;;;9.81;65.88
71149;BME280;59072;42.144;25.200;2023-11-21T07:47:30;99959.72;;;9.83;66.65
71149;BME280;59072;42.144;25.200;2023-11-21T07:49:55;99911.44;;;9.73;66.36
71149;BME280;59072;42.144;25.200;2023-11-21T07:52:23;99976.19;;;10.24;64.75
71149;BME280;59072;42.144;25.200;2023-11-21T07:54:49;99957.50;;;10.05;65.02
71149;BME280;59072;42.144;25.200;2023-11-21T07:57:14;99960.16;;;10.31;64.13
71149;BME280;59072;42.144;25.200;2023-11-21T07:59:40;99975.22;;;10.43;64.01
71149;BME280;59072;42.144;25.200;2023-11-21T08:02:06;99978.75;;;10.81;62.51
71149;BME280;59072;42.144;25.200;2023-11-21T08:04:32;99969.91;;;10.80;62.95
71149;BME280;59072;42.144;25.200;2023-11-21T08:06:58;99966.22;;;10.81;62.71
71149;BME280;59072;42.144;25.200;2023-11-21T08:09:23;99982.00;;;11.01;62.66
71149;BME280;59072;42.144;25.200;2023-11-21T08:11:49;99970.47;;;11.01;61.90
71149;BME280;59072;42.144;25.200;2023-11-21T08:14:15;99961.16;;;10.92;62.08
71149;BME280;59072;42.144;25.200;2023-11-21T08:16:40;99990.81;;;11.51;60.96
71149;BME280;59072;42.144;25.200;2023-11-21T08:19:06;99956.63;;;11.41;60.81
71149;BME280;59072;42.144;25.200;2023-11-21T08:21:31;99979.47;;;11.37;60.98
71149;BME280;59072;42.144;25.200;2023-11-21T08:23:57;99963.72;;;11.47;60.43
71149;BME280;59072;42.144;25.200;2023-11-21T08:26:22;99976.03;;;11.48;60.88
71149;BME280;59072;42.144;25.200;2023-11-21T08:28:48;99974.47;;;11.71;59.68
71149;BME280;59072;42.144;25.200;2023-11-21T08:31:14;99975.69;;;11.44;60.74
71149;BME280;59072;42.144;25.200;2023-11-21T08:33:39;99966.19;;;11.18;61.48
71149;BME280;59072;42.144;25.200;2023-11-21T08:36:09;99967.03;;;11.61;59.96
71149;BME280;59072;42.144;25.200;2023-11-21T08:38:36;99924.91;;;11.33;60.88
71149;BME280;59072;42.144;25.200;2023-11-21T08:41:05;99955.44;;;11.79;60.61
71149;BME280;59072;42.144;25.200;2023-11-21T08:43:37;99962.94;;;11.89;59.51
71149;BME280;59072;42.144;25.200;2023-11-21T08:46:08;99962.16;;;12.23;58.86
71149;BME280;59072;42.144;25.200;2023-11-21T08:48:36;99949.38;;;12.37;57.67
71149;BME280;59072;42.144;25.200;2023-11-21T08:51:03;99963.44;;;12.21;60.10
71149;BME280;59072;42.144;25.200;2023-11-21T08:53:29;99953.22;;;12.18;57.91
71149;BME280;59072;42.144;25.200;2023-11-21T08:55:56;99929.56;;;11.79;58.49
71149;BME280;59072;42.144;25.200;2023-11-21T08:58:22;99932.84;;;12.05;57.02
71149;BME280;59072;42.144;25.200;2023-11-21T09:00:47;99956.22;;;12.33;58.12
71149;BME280;59072;42.144;25.200;2023-11-21T09:03:13;99932.72;;;12.59;56.53
71149;BME280;59072;42.144;25.200;2023-11-21T09:05:39;99944.00;;;12.49;55.86
71149;BME280;59072;42.144;25.200;2023-11-21T09:08:05;99910.75;;;12.45;56.91
71149;BME280;59072;42.144;25.200;2023-11-21T09:10:30;99931.44;;;12.38;56.33
71149;BME280;59072;42.144;25.200;2023-11-21T09:12:56;99898.47;;;12.20;57.49
71149;BME280;59072;42.144;25.200;2023-11-21T09:15:22;99922.03;;;12.35;57.60
71149;BME280;59072;42.144;25.200;2023-11-21T09:17:47;99907.13;;;12.63;57.05
71149;BME280;59072;42.144;25.200;2023-11-21T09:20:12;99916.88;;;12.69;56.28
71149;BME280;59072;42.144;25.200;2023-11-21T09:22:39;99885.63;;;12.58;57.00
71149;BME280;59072;42.144;25.200;2023-11-21T09:25:06;99906.88;;;13.34;54.62
71149;BME280;59072;42.144;25.200;2023-11-21T09:27:34;99899.31;;;13.59;52.93
71149;BME280;59072;42.144;25.200;2023-11-21T09:30:01;99905.22;;;13.61;53.41
71149;BME280;59072;42.144;25.200;2023-11-21T09:32:26;99903.63;;;13.32;53.10
71149;BME280;59072;42.144;25.200;2023-11-21T09:34:52;99896.47;;;13.20;53.33
71149;BME280;59072;42.144;25.200;2023-11-21T09:37:19;99904.25;;;13.51;53.42
71149;BME280;59072;42.144;25.200;2023-11-21T09:39:44;99897.50;;;13.82;52.04
71149;BME280;59072;42.144;25.200;2023-11-21T09:42:11;99865.28;;;13.60;52.02
71149;BME280;59072;42.144;25.200;2023-11-21T09:47:26;99874.19;;;13.82;51.85
71149;BME280;59072;42.144;25.200;2023-11-21T09:49:54;99859.81;;;13.38;52.84
71149;BME280;59072;42.144;25.200;2023-11-21T09:52:25;99861.22;;;13.12;53.29
71149;BME280;59072;42.144;25.200;2023-11-21T09:54:55;99866.63;;;13.00;53.57
71149;BME280;59072;42.144;25.200;2023-11-21T09:57:24;99863.50;;;13.65;52.11
71149;BME280;59072;42.144;25.200;2023-11-21T09:59:54;99863.66;;;13.76;53.10
71149;BME280;59072;42.144;25.200;2023-11-21T10:02:25;99871.19;;;13.79;52.84
71149;BME280;59072;42.144;25.200;2023-11-21T10:04:53;99848.63;;;13.58;52.64
71149;BME280;59072;42.144;25.200;2023-11-21T10:07:20;99843.97;;;13.87;51.77
71149;BME280;59072;42.144;25.200;2023-11-21T10:09:47;99860.41;;;13.74;53.16
71149;BME280;59072;42.144;25.200;2023-11-21T10:12:14;99822.34;;;13.55;52.87
71149;BME280;59072;42.144;25.200;2023-11-21T10:14:41;99848.75;;;14.02;52.65
71149;BME280;59072;42.144;25.200;2023-11-21T10:17:09;99844.84;;;14.32;52.28
71149;BME280;59072;42.144;25.200;2023-11-21T10:19:38;99813.44;;;14.71;51.04
71149;BME280;59072;42.144;25.200;2023-11-21T10:22:05;99828.09;;;15.18;49.78
71149;BME280;59072;42.144;25.200;2023-11-21T10:24:32;99812.19;;;15.11;49.20
71149;BME280;59072;42.144;25.200;2023-11-21T10:26:58;99834.50;;;14.84;50.17
71149;BME280;59072;42.144;25.200;2023-11-21T10:29:23;99811.00;;;14.97;50.29
71149;BME280;59072;42.144;25.200;2023-11-21T10:31:50;99807.56;;;15.34;49.36
71149;BME280;59072;42.144;25.200;2023-11-21T10:34:20;99784.03;;;15.51;47.89
71149;BME280;59072;42.144;25.200;2023-11-21T10:36:46;99807.94;;;15.85;48.56
71149;BME280;59072;42.144;25.200;2023-11-21T10:39:21;99811.31;;;16.13;47.47
71149;BME280;59072;42.144;25.200;2023-11-21T10:41:49;99790.44;;;15.82;48.03
71149;BME280;59072;42.144;25.200;2023-11-21T10:44:19;99793.50;;;16.01;47.73
71149;BME280;59072;42.144;25.200;2023-11-21T10:46:52;99794.66;;;15.36;48.86
71149;BME280;59072;42.144;25.200;2023-11-21T10:49:22;99797.09;;;15.37;49.29
71149;BME280;59072;42.144;25.200;2023-11-21T10:51:50;99784.56;;;15.48;49.47
71149;BME280;59072;42.144;25.200;2023-11-21T10:54:21;99787.78;;;15.50;48.55
71149;BME280;59072;42.144;25.200;2023-11-21T10:56:49;99779.06;;;15.33;49.46
71149;BME280;59072;42.144;25.200;2023-11-21T10:59:17;99773.00;;;15.10;49.44
71149;BME280;59072;42.144;25.200;2023-11-21T11:01:45;99787.22;;;15.11;49.28
71149;BME280;59072;42.144;25.200;2023-11-21T11:04:11;99736.97;;;15.06;49.45
71149;BME280;59072;42.144;25.200;2023-11-21T11:07:05;99756.09;;;15.15;48.45
71149;BME280;59072;42.144;25.200;2023-11-21T11:09:31;99764.16;;;15.15;48.77
71149;BME280;59072;42.144;25.200;2023-11-21T11:12:01;99760.38;;;15.16;49.89
71149;BME280;59072;42.144;25.200;2023-11-21T11:14:27;99762.28;;;15.15;49.00
71149;BME280;59072;42.144;25.200;2023-11-21T11:16:54;99759.31;;;14.84;50.71
71149;BME280;59072;42.144;25.200;2023-11-21T11:19:21;99743.75;;;14.81;49.85
71149;BME280;59072;42.144;25.200;2023-11-21T11:27:57;99736.53;;;14.60;51.23
71149;BME280;59072;42.144;25.200;2023-11-21T11:33:21;99702.97;;;13.86;53.33
71149;BME280;59072;42.144;25.200;2023-11-21T11:36:02;99734.94;;;14.59;52.14
71149;BME280;59072;42.144;25.200;2023-11-21T11:38:33;99711.47;;;14.76;50.94
71149;BME280;59072;42.144;25.200;2023-11-21T11:41:05;99689.56;;;14.57;50.25
71149;BME280;59072;42.144;25.200;2023-11-21T11:43:31;99727.19;;;14.95;49.17
71149;BME280;59072;42.144;25.200;2023-11-21T11:46:10;99702.16;;;14.07;49.08
71149;BME280;59072;42.144;25.200;2023-11-21T11:48:39;99686.81;;;14.25;49.47
71149;BME280;59072;42.144;25.200;2023-11-21T11:51:10;99694.44;;;14.38;50.86
71149;BME280;59072;42.144;25.200;2023-11-21T11:53:46;99689.63;;;14.13;51.10
71149;BME280;59072;42.144;25.200;2023-11-21T11:56:22;99702.88;;;14.52;50.11
71149;BME280;59072;42.144;25.200;2023-11-21T11:58:49;99683.22;;;14.41;50.38
71149;BME280;59072;42.144;25.200;2023-11-21T12:01:19;99673.25;;;14.37;50.89
71149;BME280;59072;42.144;25.200;2023-11-21T12:06:39;99627.56;;;13.55;52.33
71149;BME280;59072;42.144;25.200;2023-11-21T12:09:06;99635.34;;;13.79;51.76
71149;BME280;59072;42.144;25.200;2023-11-21T12:11:32;99644.63;;;13.93;51.17
71149;BME280;59072;42.144;25.200;2023-11-21T12:13:58;99652.16;;;13.96;50.71
71149;BME280;59072;42.144;25.200;2023-11-21T12:16:25;99622.50;;;13.81;50.59
71149;BME280;59072;42.144;25.200;2023-11-21T12:18:53;99627.75;;;13.71;51.63
71149;BME280;59072;42.144;25.200;2023-11-21T12:21:19;99630.63;;;13.86;50.52
71149;BME280;59072;42.144;25.200;2023-11-21T12:23:45;99627.00;;;13.53;51.36
71149;BME280;59072;42.144;25.200;2023-11-21T12:26:13;99623.63;;;13.41;51.62
71149;BME280;59072;42.144;25.200;2023-11-21T12:28:39;99634.78;;;13.16;51.93
71149;BME280;59072;42.144;25.200;2023-11-21T12:31:05;99621.78;;;13.24;51.78
71149;BME280;59072;42.144;25.200;2023-11-21T12:33:33;99606.28;;;13.26;51.83
71149;BME280;59072;42.144;25.200;2023-11-21T12:35:58;99604.50;;;13.15;52.20
71149;BME280;59072;42.144;25.200;2023-11-21T12:38:24;99635.50;;;13.28;52.01
71149;BME280;59072;42.144;25.200;2023-11-21T12:40:50;99618.59;;;13.44;52.05
71149;BME280;59072;42.144;25.200;2023-11-21T12:43:17;99628.69;;;13.59;51.74
71149;BME280;59072;42.144;25.200;2023-11-21T12:45:43;99618.69;;;13.77;50.61
71149;BME280;59072;42.144;25.200;2023-11-21T12:48:09;99623.44;;;13.92;51.06
71149;BME280;59072;42.144;25.200;2023-11-21T12:50:37;99602.47;;;13.61;51.08
71149;BME280;59072;42.144;25.200;2023-11-21T12:53:08;99610.53;;;13.89;50.72
71149;BME280;59072;42.144;25.200;2023-11-21T12:55:35;99595.31;;;13.94;51.27
71149;BME280;59072;42.144;25.200;2023-11-21T12:58:03;99592.56;;;13.89;50.99
71149;BME280;59072;42.144;25.200;2023-11-21T13:00:45;99623.44;;;14.19;50.62
71149;BME280;59072;42.144;25.200;2023-11-21T13:03:13;99614.00;;;14.43;50.22
71149;BME280;59072;42.144;25.200;2023-11-21T13:05:43;99602.94;;;14.35;50.09
71149;BME280;59072;42.144;25.200;2023-11-21T13:08:11;99615.66;;;14.44;51.37
71149;BME280;59072;42.144;25.200;2023-11-21T13:10:41;99623.22;;;14.53;49.13